Portada
METAR-TAF:

METAR-TAF

Aeropuertos :

Marshfield Municipal Airport

Marshfield, Wisconsin, Estados Unidos

latitud: 44-38-17N, longitud: 090-11-15W, altitud: 389 m

Observación

El informe se hizo hace 20 minutos, a las 10:54 UTC
Viento 6 kt del norte-noreste
Temperatura 0°C
Humedad 74%
Presión 1020 hPa
Visibilidad: 16.1 km
Cielo despejado

METAR: KMFI 311054Z AUTO 03006KT 10SM CLR 00/M04 A3012 RMK AO2 SLP210 T00001044

Hora: 06:14 (11:14 UTC)


TAF: falta

Observaciones y pronósticos meteorológicos de más de 4000 aeropuertos (mensajes METAR y TAF).

Los puntos amarillos y rojos representan las estaciones disponibles.

Ponga el ratón en el punto deseado para ver el nombre de la estación.

Haga clic para ver las observaciones y los pronósticos meteorológicos.

Para cambiar el mapa : haga clic en los botones verdes con una cruz de color negro para hacer un zoom, en el botón verde con un guión para alejar o en las flechas verdes para mapas adyacentes.


METAR-TAF: